SHQN weather

Quinn Heliport
Valdivia, Los RĂ­os Region, Chile

Public forecast

Using degrees Celsius for public forecast. Weather courtesy of forecast.io.

METAR (pilot weather report)

Closest report is Pichoy Airport, 14.5 nm (26.9 km) NNE. Retrieved 2019/03/27 00:00 UTC (42 minutes ago):

SCVD 270000Z AUTO VRB02KT 3100 BR NCD 15/10 Q1011

TAF (pilot weather forecast)

Forecast is more than 12 hours old.

Closest forecast is Pichoy Airport, 14.5 nm (26.9 km) NNE. Retrieved 2019/03/26 12:00 UTC (13 hours ago):

TAF SCVD 261023Z 2612/2624 VRB03KT CAVOK TN03/2612Z TX23/2619Z BECMG 2614/2616 15008KT